createdAt,value
2023-03-06T00:01:34.903Z,0.71
2023-03-06T00:05:34.723Z,0.71
2023-03-06T00:09:34.700Z,0.72
2023-03-06T00:13:34.537Z,0.72
2023-03-06T00:17:34.338Z,0.70
2023-03-06T00:21:34.119Z,0.70
2023-03-06T00:25:33.920Z,0.70
2023-03-06T00:29:33.746Z,0.69
2023-03-06T00:33:33.561Z,0.69
2023-03-06T00:37:33.332Z,0.69
2023-03-06T00:41:33.127Z,0.68
2023-03-06T00:45:33.007Z,0.67
2023-03-06T00:49:32.739Z,0.66
2023-03-06T00:53:32.974Z,0.67
2023-03-06T00:57:32.390Z,0.67
2023-03-06T01:01:32.302Z,0.66
2023-03-06T01:05:32.243Z,0.66
2023-03-06T01:09:32.156Z,0.64
2023-03-06T01:13:32.030Z,0.64
2023-03-06T01:17:34.007Z,0.63
2023-03-06T01:21:31.944Z,0.65
2023-03-06T01:25:31.906Z,0.65
2023-03-06T01:29:31.886Z,0.64
2023-03-06T01:33:31.878Z,0.61
2023-03-06T01:37:31.716Z,0.62
2023-03-06T01:41:31.589Z,0.64
2023-03-06T01:45:31.603Z,0.64
2023-03-06T01:49:31.495Z,0.65
2023-03-06T01:53:31.560Z,0.64
2023-03-06T01:57:31.403Z,0.64
2023-03-06T02:01:31.512Z,0.63
2023-03-06T02:05:31.309Z,0.64
2023-03-06T02:09:31.204Z,0.63
2023-03-06T02:13:31.154Z,0.66
2023-03-06T02:17:31.170Z,0.64
2023-03-06T02:21:31.185Z,0.65
2023-03-06T02:25:31.286Z,0.64
2023-03-06T02:29:31.097Z,0.64
2023-03-06T02:33:30.911Z,0.63
2023-03-06T02:37:30.692Z,0.65
2023-03-06T02:41:30.568Z,0.63
2023-03-06T02:45:30.345Z,0.64
2023-03-06T02:49:30.180Z,0.62
2023-03-06T02:53:29.916Z,0.63
2023-03-06T02:57:29.734Z,0.62
2023-03-06T03:01:29.561Z,0.63
2023-03-06T03:05:29.313Z,0.65
2023-03-06T03:09:29.098Z,0.63
2023-03-06T03:13:28.875Z,0.63
2023-03-06T03:17:28.698Z,0.64
2023-03-06T03:21:28.509Z,0.62
2023-03-06T03:25:28.402Z,0.63
2023-03-06T03:29:28.415Z,0.60
2023-03-06T03:33:28.402Z,0.61
2023-03-06T03:37:28.227Z,0.62
2023-03-06T03:41:28.509Z,0.62
2023-03-06T03:45:27.986Z,0.64
2023-03-06T03:49:27.784Z,0.63
2023-03-06T03:53:27.594Z,0.62
2023-03-06T03:57:27.392Z,0.63
2023-03-06T04:01:27.190Z,0.65
2023-03-06T04:05:27.042Z,0.66
2023-03-06T04:09:26.858Z,0.66
2023-03-06T04:13:26.756Z,0.66
2023-03-06T04:17:26.612Z,0.66
2023-03-06T04:21:26.519Z,0.67
2023-03-06T04:25:26.471Z,0.69
2023-03-06T04:29:26.460Z,0.67
2023-03-06T04:33:26.456Z,0.68
2023-03-06T04:37:26.270Z,0.64
2023-03-06T04:41:26.035Z,0.67
2023-03-06T04:45:25.798Z,0.68
2023-03-06T04:49:25.574Z,0.68
2023-03-06T04:53:25.372Z,0.69
2023-03-06T04:57:25.145Z,0.66
2023-03-06T05:01:25.013Z,0.68
2023-03-06T05:05:24.719Z,0.59
2023-03-06T05:09:24.463Z,0.69
2023-03-06T05:13:24.242Z,0.66
2023-03-06T05:17:24.106Z,0.66
2023-03-06T05:21:23.893Z,0.66
2023-03-06T05:25:23.731Z,0.65
2023-03-06T05:29:23.543Z,0.66
2023-03-06T05:33:23.352Z,0.67
2023-03-06T05:37:23.172Z,0.65
2023-03-06T05:41:22.933Z,0.66
2023-03-06T05:45:22.752Z,0.65
2023-03-06T05:49:22.516Z,0.66
2023-03-06T05:53:22.317Z,0.63
2023-03-06T05:57:22.275Z,0.57
2023-03-06T06:01:22.262Z,0.57
2023-03-06T06:05:22.189Z,0.58
2023-03-06T06:09:22.093Z,0.60
2023-03-06T06:13:22.034Z,0.63
2023-03-06T06:17:21.931Z,0.64
2023-03-06T06:21:21.798Z,0.69
2023-03-06T06:25:21.689Z,0.69
2023-03-06T06:29:21.531Z,0.73
2023-03-06T06:33:21.424Z,0.76
2023-03-06T06:37:21.346Z,0.82
2023-03-06T06:41:50.746Z,1.03
2023-03-06T06:45:22.030Z,0.96
2023-03-06T06:49:21.133Z,1.02
2023-03-06T06:53:21.068Z,1.30
2023-03-06T06:57:20.601Z,1.29
2023-03-06T07:01:20.348Z,1.34
2023-03-06T07:05:21.773Z,1.60
2023-03-06T07:09:20.097Z,1.58
2023-03-06T07:13:20.090Z,1.63
2023-03-06T07:17:20.047Z,1.80
2023-03-06T07:21:20.019Z,1.91
2023-03-06T07:25:20.082Z,1.98
2023-03-06T07:29:20.120Z,2.04
2023-03-06T07:33:20.143Z,2.03
2023-03-06T07:37:20.613Z,2.24
2023-03-06T07:41:22.489Z,2.25
2023-03-06T07:45:20.117Z,2.36
2023-03-06T07:49:19.714Z,2.88
2023-03-06T07:53:19.604Z,2.82
2023-03-06T07:57:19.605Z,2.92
2023-03-06T08:01:19.182Z,2.85
2023-03-06T08:05:18.814Z,2.98
2023-03-06T08:09:21.630Z,3.02
2023-03-06T08:13:18.331Z,3.00
2023-03-06T08:17:18.644Z,3.05
2023-03-06T08:21:17.917Z,3.17
2023-03-06T08:25:17.850Z,2.95
2023-03-06T08:29:17.487Z,3.10
2023-03-06T08:33:17.626Z,3.10
2023-03-06T08:37:17.107Z,2.90
2023-03-06T08:41:17.110Z,3.02
2023-03-06T08:45:17.138Z,3.22
2023-03-06T08:49:16.669Z,3.23
2023-03-06T08:53:16.405Z,3.18
2023-03-06T08:57:16.334Z,3.04
2023-03-06T09:01:17.151Z,2.97
2023-03-06T09:05:16.227Z,2.82
2023-03-06T09:09:16.130Z,2.81
2023-03-06T09:13:16.020Z,2.72
2023-03-06T09:17:15.920Z,2.60
2023-03-06T09:21:16.107Z,2.60
2023-03-06T09:25:15.746Z,2.47
2023-03-06T09:29:15.658Z,2.41
2023-03-06T09:33:15.493Z,2.38
2023-03-06T09:37:16.352Z,2.30
2023-03-06T09:41:15.224Z,2.46
2023-03-06T09:45:15.232Z,2.89
2023-03-06T09:49:15.183Z,2.77
2023-03-06T09:53:15.248Z,2.64
2023-03-06T09:57:14.617Z,3.29
2023-03-06T10:01:14.312Z,3.19
2023-03-06T10:05:14.217Z,3.05
2023-03-06T10:09:14.155Z,3.05
2023-03-06T10:13:13.714Z,2.84
2023-03-06T10:17:13.515Z,2.82
2023-03-06T10:21:19.349Z,2.75
2023-03-06T10:25:14.211Z,2.84
2023-03-06T10:29:13.312Z,2.70
2023-03-06T10:33:12.756Z,2.61
2023-03-06T10:37:12.499Z,2.52
